Time;durP1;ratioP1;P1;durP2;ratioP2;P2;SDS_P1;SDS_P2;PMS_P1;PMS_P2;Temp;Humidity;BMP_temperature;BMP_pressure;BME280_temperature;BME280_humidity;BME280_pressure;Samples;Min_cycle;Max_cycle;Signal;HPM_P1;HPM_P2
2021/06/05 00:00:53;;;;;;;4.60;4.15;;;20.70;60.40;;;;;;3123971;28;20099;-81
2021/06/05 00:02:28;;;;;;;5.57;4.60;;;20.70;60.30;;;;;;3126392;28;20084;-82
2021/06/05 00:03:59;;;;;;;4.22;3.92;;;20.70;60.40;;;;;;3126299;28;20053;-82
2021/06/05 00:05:35;;;;;;;4.47;4.07;;;20.70;60.20;;;;;;3125419;28;20057;-82
2021/06/05 00:07:06;;;;;;;5.20;4.80;;;20.70;60.30;;;;;;3126383;28;20046;-82
2021/06/05 00:08:37;;;;;;;4.68;4.28;;;20.70;60.30;;;;;;3125831;28;20041;-82
2021/06/05 00:10:09;;;;;;;4.40;4.00;;;20.70;60.30;;;;;;3126068;28;20642;-82
2021/06/05 00:11:40;;;;;;;4.80;4.40;;;20.70;60.30;;;;;;3125621;28;20049;-83
2021/06/05 00:13:12;;;;;;;4.80;4.30;;;20.70;60.30;;;;;;3126413;28;20079;-82
2021/06/05 00:14:44;;;;;;;4.93;4.53;;;20.70;60.30;;;;;;3126421;28;20212;-82
2021/06/05 00:16:17;;;;;;;4.68;4.28;;;20.70;60.30;;;;;;3124878;28;20045;-83
2021/06/05 00:17:48;;;;;;;4.80;4.38;;;20.70;60.30;;;;;;3126081;28;20056;-82
2021/06/05 00:19:20;;;;;;;4.53;4.13;;;20.70;60.40;;;;;;3126744;28;20467;-81
2021/06/05 00:20:52;;;;;;;4.53;4.13;;;20.70;60.30;;;;;;3125110;28;20057;-83
2021/06/05 00:22:23;;;;;;;4.97;4.15;;;20.70;60.40;;;;;;3125499;28;20045;-82
2021/06/05 00:23:55;;;;;;;6.25;4.70;;;20.70;60.30;;;;;;3126230;28;20052;-82
2021/06/05 00:25:26;;;;;;;4.28;3.88;;;20.70;60.30;;;;;;3125654;28;20418;-82
2021/06/05 00:26:57;;;;;;;4.60;4.20;;;20.70;60.20;;;;;;3125325;28;20049;-81
2021/06/05 00:28:28;;;;;;;4.50;4.10;;;20.70;60.30;;;;;;3125917;28;20080;-82
2021/06/05 00:29:59;;;;;;;4.95;4.55;;;20.80;60.30;;;;;;3125207;28;20053;-82
2021/06/05 00:31:31;;;;;;;5.18;4.35;;;20.70;60.30;;;;;;3124020;28;20491;-82
2021/06/05 00:33:01;;;;;;;4.93;4.45;;;20.70;60.20;;;;;;3125806;28;20054;-83
2021/06/05 00:34:33;;;;;;;4.63;4.22;;;20.70;60.20;;;;;;3125867;28;20042;-83
2021/06/05 00:36:07;;;;;;;4.93;4.25;;;20.70;60.20;;;;;;3125457;28;20050;-82
2021/06/05 00:37:38;;;;;;;4.88;4.47;;;20.70;60.20;;;;;;3125937;28;20076;-82
2021/06/05 00:39:09;;;;;;;4.50;4.10;;;20.70;60.20;;;;;;3126111;28;20042;-82
2021/06/05 00:40:43;;;;;;;4.57;4.15;;;20.70;60.10;;;;;;3125219;28;20422;-81
2021/06/05 00:42:14;;;;;;;4.65;4.22;;;20.70;60.20;;;;;;3125562;28;20053;-82
2021/06/05 00:43:47;;;;;;;4.82;4.43;;;20.70;60.20;;;;;;3125741;28;20054;-82
2021/06/05 00:45:18;;;;;;;4.70;4.30;;;20.70;60.20;;;;;;3124591;28;20468;-81
2021/06/05 00:46:50;;;;;;;4.97;4.50;;;20.70;60.20;;;;;;3126215;28;20091;-82
2021/06/05 00:48:21;;;;;;;4.60;4.03;;;20.80;60.10;;;;;;3126165;28;20053;-82
2021/06/05 00:49:54;;;;;;;5.05;4.55;;;20.80;60.30;;;;;;3125405;28;20053;-83
2021/06/05 00:51:34;;;;;;;4.85;4.45;;;20.70;60.10;;;;;;3125446;28;20059;-82
2021/06/05 00:53:05;;;;;;;4.40;4.00;;;20.70;60.10;;;;;;3125824;28;20049;-83
2021/06/05 00:54:37;;;;;;;4.57;4.18;;;20.70;60.10;;;;;;3126104;28;20058;-82
2021/06/05 00:56:09;;;;;;;4.57;4.15;;;20.70;60.20;;;;;;3125326;28;20053;-83
2021/06/05 00:57:40;;;;;;;4.70;4.30;;;20.70;60.20;;;;;;3128031;28;20045;-83
2021/06/05 00:59:11;;;;;;;4.55;4.15;;;20.80;60.30;;;;;;3128551;28;20414;-82
2021/06/05 01:00:44;;;;;;;4.70;4.30;;;20.70;60.10;;;;;;3126207;28;20533;-82
2021/06/05 01:02:15;;;;;;;4.47;4.07;;;20.70;60.10;;;;;;3127564;28;20053;-81
2021/06/05 01:03:46;;;;;;;4.43;4.03;;;20.70;60.10;;;;;;3127505;28;20053;-81
2021/06/05 01:05:17;;;;;;;4.55;4.15;;;20.70;60.20;;;;;;3127408;28;20057;-82
2021/06/05 01:06:51;;;;;;;4.97;4.35;;;20.70;60.10;;;;;;3127001;28;20046;-82
2021/06/05 01:08:25;;;;;;;4.70;4.30;;;20.70;60.80;;;;;;3127196;28;20049;-82
2021/06/05 01:09:58;;;;;;;4.63;4.22;;;20.70;60.30;;;;;;3126849;28;20057;-81
2021/06/05 01:11:37;;;;;;;4.47;4.07;;;20.70;60.10;;;;;;3126250;28;20080;-82
2021/06/05 01:13:12;;;;;;;4.70;4.30;;;20.80;60.30;;;;;;3127343;28;20053;-81
2021/06/05 01:14:45;;;;;;;4.60;4.20;;;20.70;60.10;;;;;;3127201;28;20053;-82
2021/06/05 01:16:17;;;;;;;4.57;4.18;;;20.70;60.20;;;;;;3126199;28;20053;-82
2021/06/05 01:17:49;;;;;;;4.70;4.30;;;20.70;60.10;;;;;;3127202;28;20052;-82
2021/06/05 01:19:34;;;;;;;4.57;4.13;;;20.70;60.10;;;;;;3127773;28;20065;-82
2021/06/05 01:21:13;;;;;;;4.50;4.10;;;20.70;60.20;;;;;;3127022;28;20053;-82
2021/06/05 01:23:12;;;;;;;4.68;4.28;;;20.70;60.20;;;;;;3127222;28;20045;-82
2021/06/05 01:24:48;;;;;;;4.55;4.15;;;20.70;60.20;;;;;;3127562;28;20049;-82
2021/06/05 01:26:21;;;;;;;4.40;3.97;;;20.70;60.30;;;;;;3127122;28;20053;-82
2021/06/05 01:27:55;;;;;;;4.45;4.05;;;20.70;60.10;;;;;;3127413;28;20049;-81
2021/06/05 01:29:28;;;;;;;4.95;4.13;;;20.70;60.10;;;;;;3127442;28;20386;-82
2021/06/05 01:30:59;;;;;;;;;;;20.70;60.90;;;;;;3125793;28;20056;-82
2021/06/05 01:32:30;;;;;;;4.50;4.10;;;20.70;60.10;;;;;;3127316;28;20273;-83
2021/06/05 01:34:01;;;;;;;4.70;4.30;;;20.70;60.10;;;;;;3127294;28;20531;-82
2021/06/05 01:35:32;;;;;;;4.70;4.28;;;20.70;60.20;;;;;;3126313;28;20502;-82
2021/06/05 01:37:03;;;;;;;4.15;3.85;;;20.70;60.10;;;;;;3126954;28;20426;-82
2021/06/05 01:38:35;;;;;;;4.82;4.38;;;20.70;60.10;;;;;;3127504;28;20056;-81
2021/06/05 01:40:07;;;;;;;4.70;4.30;;;20.70;60.10;;;;;;3126518;28;20112;-81
2021/06/05 01:41:40;;;;;;;4.70;4.30;;;20.70;60.20;;;;;;3126481;28;20050;-80
2021/06/05 01:43:11;;;;;;;4.53;4.13;;;20.70;60.10;;;;;;3126797;28;20052;-82
2021/06/05 01:44:42;;;;;;;4.50;4.10;;;20.70;60.20;;;;;;3126924;28;20658;-83
2021/06/05 01:46:13;;;;;;;4.32;3.92;;;20.70;60.10;;;;;;3125345;28;20054;-82
2021/06/05 01:47:44;;;;;;;5.95;4.20;;;20.70;60.00;;;;;;3126806;28;20061;-82
2021/06/05 01:49:16;;;;;;;4.70;3.90;;;20.70;60.10;;;;;;3126933;28;20052;-81
2021/06/05 01:50:47;;;;;;;4.65;3.85;;;20.70;60.10;;;;;;3126215;28;20399;-82
2021/06/05 01:52:21;;;;;;;4.47;4.07;;;20.70;60.20;;;;;;3126512;28;20047;-82
2021/06/05 01:53:54;;;;;;;4.43;4.03;;;20.70;60.10;;;;;;3126919;28;20054;-82
2021/06/05 01:55:28;;;;;;;4.38;3.97;;;20.70;60.00;;;;;;3125933;28;20067;-82
2021/06/05 01:57:02;;;;;;;4.80;4.30;;;20.70;60.10;;;;;;3125587;28;20451;-81
2021/06/05 01:58:33;;;;;;;4.40;4.00;;;20.70;60.00;;;;;;3126273;28;20501;-82
2021/06/05 02:00:09;;;;;;;4.07;3.67;;;20.70;59.90;;;;;;3126034;28;20046;-82
2021/06/05 02:01:41;;;;;;;4.53;4.05;;;20.70;60.10;;;;;;3126034;28;20049;-81
2021/06/05 02:03:12;;;;;;;4.60;4.20;;;20.70;59.90;;;;;;3126096;28;20465;-82
2021/06/05 02:04:43;;;;;;;4.40;4.00;;;20.80;60.10;;;;;;3125862;28;20053;-82
2021/06/05 02:06:14;;;;;;;5.10;4.35;;;20.70;59.90;;;;;;3125356;28;20693;-82
2021/06/05 02:07:45;;;;;;;4.68;4.28;;;20.70;59.90;;;;;;3126066;28;20045;-82
2021/06/05 02:09:19;;;;;;;4.50;4.10;;;20.70;59.90;;;;;;3125799;28;20109;-81
2021/06/05 02:10:51;;;;;;;4.90;4.50;;;20.70;59.90;;;;;;3125095;28;20103;-82
2021/06/05 02:12:26;;;;;;;4.68;4.03;;;20.70;60.00;;;;;;3126321;28;20046;-82
2021/06/05 02:14:00;;;;;;;4.45;4.05;;;20.80;60.10;;;;;;3126890;28;20054;-83
2021/06/05 02:15:34;;;;;;;4.38;3.97;;;20.70;60.00;;;;;;3125207;28;20045;-82
2021/06/05 02:17:07;;;;;;;4.28;3.92;;;20.70;59.90;;;;;;3126359;28;20742;-82
2021/06/05 02:18:41;;;;;;;4.45;4.05;;;20.70;60.00;;;;;;3126149;28;20499;-82
2021/06/05 02:20:14;;;;;;;4.55;4.15;;;20.70;59.90;;;;;;3125520;28;20068;-82
2021/06/05 02:21:46;;;;;;;4.50;4.10;;;20.70;60.00;;;;;;3125072;28;20068;-81
2021/06/05 02:23:22;;;;;;;4.10;3.80;;;20.70;60.00;;;;;;3125604;28;20673;-81
2021/06/05 02:24:56;;;;;;;4.30;3.90;;;20.70;59.90;;;;;;3126039;28;20049;-82
2021/06/05 02:26:27;;;;;;;4.40;4.10;;;20.70;59.90;;;;;;3125085;28;20057;-82
2021/06/05 02:28:00;;;;;;;4.38;3.97;;;20.70;60.00;;;;;;3125360;28;20049;-81
2021/06/05 02:29:33;;;;;;;4.15;3.83;;;20.70;59.90;;;;;;3125588;28;20057;-80
2021/06/05 02:31:05;;;;;;;4.68;4.25;;;20.70;59.90;;;;;;3123780;28;20568;-82
2021/06/05 02:32:36;;;;;;;4.70;4.20;;;20.70;60.00;;;;;;3126430;28;20060;-82
2021/06/05 02:34:08;;;;;;;4.28;3.72;;;20.70;59.90;;;;;;3125780;28;20049;-82
2021/06/05 02:35:41;;;;;;;4.15;3.85;;;20.70;59.90;;;;;;3125153;28;20045;-80
2021/06/05 02:37:13;;;;;;;4.82;4.35;;;20.70;60.00;;;;;;3126013;28;20050;-82
2021/06/05 02:38:46;;;;;;;4.40;4.07;;;20.70;59.90;;;;;;3126350;28;20057;-82
2021/06/05 02:40:18;;;;;;;;;;;20.70;59.90;;;;;;3125499;28;20049;-82
2021/06/05 02:41:50;;;;;;;4.43;4.03;;;20.70;59.90;;;;;;3125249;28;19999;-82
2021/06/05 02:43:29;;;;;;;4.30;3.90;;;20.70;59.90;;;;;;3125038;28;20111;-82
2021/06/05 02:45:01;;;;;;;4.13;3.80;;;20.70;59.90;;;;;;3125381;28;20096;-82
2021/06/05 02:46:33;;;;;;;4.30;3.90;;;20.70;59.90;;;;;;3124193;28;20046;-82
2021/06/05 02:48:04;;;;;;;4.60;4.15;;;20.70;59.80;;;;;;3125439;28;20053;-82
2021/06/05 02:49:36;;;;;;;4.50;4.10;;;20.70;59.90;;;;;;3125668;28;20075;-82
2021/06/05 02:51:06;;;;;;;4.30;3.97;;;20.70;59.80;;;;;;3124486;28;20080;-82
2021/06/05 02:52:37;;;;;;;4.53;4.13;;;20.70;59.90;;;;;;3125160;28;20045;-82
2021/06/05 02:54:09;;;;;;;4.05;3.75;;;20.70;59.90;;;;;;3124708;28;20530;-81
2021/06/05 02:55:41;;;;;;;4.45;3.90;;;20.70;59.90;;;;;;3125300;28;20050;-81
2021/06/05 02:57:11;;;;;;;4.32;3.92;;;20.70;59.80;;;;;;3125772;28;20128;-82
2021/06/05 02:58:44;;;;;;;4.60;4.20;;;20.70;59.90;;;;;;3125106;28;20445;-82
2021/06/05 03:00:17;;;;;;;5.43;3.97;;;20.80;59.90;;;;;;3123948;28;20053;-82
2021/06/05 03:01:48;;;;;;;4.60;4.00;;;20.70;59.90;;;;;;3125612;28;20072;-82
2021/06/05 03:03:20;;;;;;;4.25;3.85;;;20.70;59.90;;;;;;3125352;28;20107;-82
2021/06/05 03:04:51;;;;;;;5.18;4.70;;;20.70;59.80;;;;;;3125279;28;20046;-82
2021/06/05 03:06:22;;;;;;;4.35;3.95;;;20.70;59.80;;;;;;3124784;28;20056;-82
2021/06/05 03:07:53;;;;;;;4.38;3.97;;;20.70;59.80;;;;;;3125285;28;20053;-82
2021/06/05 03:09:24;;;;;;;4.20;3.80;;;20.70;59.80;;;;;;3125346;28;20469;-82
2021/06/05 03:10:55;;;;;;;4.18;3.78;;;20.70;59.90;;;;;;3124282;28;20061;-80
2021/06/05 03:12:26;;;;;;;4.40;4.00;;;20.70;59.80;;;;;;3125416;28;20425;-82
2021/06/05 03:13:59;;;;;;;4.40;4.00;;;20.70;59.80;;;;;;3124998;28;20054;-83
2021/06/05 03:15:30;;;;;;;4.60;4.20;;;20.70;59.80;;;;;;3123865;28;20048;-81
2021/06/05 03:17:01;;;;;;;4.35;3.95;;;20.70;59.80;;;;;;3124431;28;20052;-80
2021/06/05 03:18:31;;;;;;;3.95;3.60;;;20.70;59.80;;;;;;3125426;28;20061;-82
2021/06/05 03:20:04;;;;;;;4.35;4.00;;;20.70;59.80;;;;;;3124219;28;20050;-82
2021/06/05 03:21:35;;;;;;;4.32;4.00;;;20.70;59.70;;;;;;3124115;28;20136;-82
2021/06/05 03:23:07;;;;;;;4.30;3.90;;;20.70;59.70;;;;;;3125187;28;20045;-82
2021/06/05 03:24:38;;;;;;;4.40;4.00;;;20.80;59.80;;;;;;3124837;28;20072;-82
2021/06/05 03:26:08;;;;;;;4.55;4.15;;;20.70;59.80;;;;;;3124045;28;20060;-81
2021/06/05 03:27:40;;;;;;;4.00;3.70;;;20.70;59.90;;;;;;3125029;28;20107;-81
2021/06/05 03:29:12;;;;;;;4.50;3.83;;;20.70;59.70;;;;;;3125230;28;20513;-82
2021/06/05 03:30:43;;;;;;;4.50;4.05;;;20.70;59.70;;;;;;3123169;28;20069;-81
2021/06/05 03:32:14;;;;;;;4.68;3.90;;;20.70;59.70;;;;;;3124489;28;20071;-82
2021/06/05 03:33:45;;;;;;;4.47;4.07;;;20.70;59.80;;;;;;3124871;28;20492;-82
2021/06/05 03:35:16;;;;;;;4.30;3.90;;;20.70;59.70;;;;;;3124564;28;20056;-82
2021/06/05 03:36:47;;;;;;;4.20;3.90;;;20.70;59.70;;;;;;3124518;28;20052;-81
2021/06/05 03:38:19;;;;;;;4.50;4.10;;;20.70;59.80;;;;;;3124765;28;20046;-82
2021/06/05 03:39:50;;;;;;;4.10;3.75;;;20.70;59.70;;;;;;3124715;28;20340;-82
2021/06/05 03:41:21;;;;;;;4.05;3.75;;;20.70;59.80;;;;;;3124703;28;20038;-82
2021/06/05 03:42:52;;;;;;;4.20;3.80;;;20.70;59.80;;;;;;3124879;28;20080;-81
2021/06/05 03:44:24;;;;;;;3.80;3.50;;;20.70;59.70;;;;;;3124776;28;20049;-82
2021/06/05 03:45:55;;;;;;;4.43;4.03;;;20.70;59.70;;;;;;3123410;28;20111;-82
2021/06/05 03:47:26;;;;;;;4.50;4.10;;;20.70;59.70;;;;;;3124896;28;20049;-82
2021/06/05 03:48:57;;;;;;;4.00;3.60;;;20.70;59.70;;;;;;3124991;28;20053;-82
2021/06/05 03:50:30;;;;;;;4.25;3.92;;;20.70;59.70;;;;;;3124072;28;20050;-83
2021/06/05 03:52:01;;;;;;;5.68;3.70;;;20.70;59.60;;;;;;3124844;28;20045;-82
2021/06/05 03:53:32;;;;;;;3.97;3.67;;;20.70;59.60;;;;;;3125368;28;20049;-82
2021/06/05 03:55:03;;;;;;;4.72;4.20;;;20.70;59.60;;;;;;3125627;28;20061;-81
2021/06/05 03:56:34;;;;;;;4.93;4.05;;;20.70;59.60;;;;;;3124361;28;20429;-83
2021/06/05 03:58:06;;;;;;;4.40;4.00;;;20.70;59.60;;;;;;3124700;28;20053;-80
2021/06/05 03:59:38;;;;;;;4.40;4.00;;;20.80;59.60;;;;;;3125248;28;20072;-81
2021/06/05 04:01:10;;;;;;;4.20;3.90;;;20.70;59.60;;;;;;3124081;28;20068;-82
2021/06/05 04:02:41;;;;;;;4.28;3.88;;;20.70;59.60;;;;;;3125807;28;20528;-82
2021/06/05 04:04:13;;;;;;;4.00;3.55;;;20.70;59.50;;;;;;3124718;28;20057;-83
2021/06/05 04:05:43;;;;;;;3.97;3.67;;;20.70;59.60;;;;;;3125457;28;20052;-81
2021/06/05 04:07:14;;;;;;;4.47;4.07;;;20.70;59.60;;;;;;3124707;28;20041;-82
2021/06/05 04:08:46;;;;;;;4.00;3.70;;;20.80;59.60;;;;;;3125529;28;20046;-82
2021/06/05 04:10:16;;;;;;;4.10;3.70;;;20.70;59.60;;;;;;3123753;28;20056;-82
2021/06/05 04:11:47;;;;;;;3.97;3.67;;;20.70;59.50;;;;;;3124294;28;20041;-82
2021/06/05 04:13:18;;;;;;;4.32;3.95;;;20.80;59.60;;;;;;3124692;28;20568;-81
2021/06/05 04:14:51;;;;;;;4.30;3.92;;;20.70;59.60;;;;;;3125597;28;20041;-83
2021/06/05 04:16:23;;;;;;;4.63;3.90;;;20.70;59.60;;;;;;3123531;28;20048;-82
2021/06/05 04:18:15;;;;;;;3.90;3.60;;;20.70;59.60;;;;;;3125037;28;20050;-81
2021/06/05 04:19:46;;;;;;;4.43;4.00;;;20.70;59.50;;;;;;3121613;28;20050;-82
2021/06/05 04:21:19;;;;;;;4.45;3.97;;;20.70;59.50;;;;;;3124252;28;20045;-82
2021/06/05 04:22:50;;;;;;;4.43;4.00;;;20.70;59.60;;;;;;3125186;28;20041;-81
2021/06/05 04:24:21;;;;;;;4.00;3.60;;;20.70;59.60;;;;;;3124576;28;20084;-82
2021/06/05 04:25:52;;;;;;;4.00;3.70;;;20.70;59.60;;;;;;3125177;28;20046;-82
2021/06/05 04:27:24;;;;;;;4.38;3.90;;;20.80;59.60;;;;;;3124894;28;20057;-82
2021/06/05 04:28:55;;;;;;;4.70;4.03;;;20.70;59.50;;;;;;3124550;28;20053;-82
2021/06/05 04:30:28;;;;;;;7.15;4.25;;;20.70;59.50;;;;;;3122826;28;20053;-82
2021/06/05 04:32:00;;;;;;;4.70;3.80;;;20.70;59.50;;;;;;3125614;28;20049;-82
2021/06/05 04:33:31;;;;;;;4.30;3.90;;;20.70;59.50;;;;;;3127712;28;20045;-82
2021/06/05 04:35:01;;;;;;;4.40;4.00;;;20.70;59.50;;;;;;3149038;22;20052;-77
2021/06/05 04:36:33;;;;;;;4.10;3.80;;;20.70;59.50;;;;;;3137901;28;20425;-79
2021/06/05 04:38:03;;;;;;;5.00;3.97;;;20.70;59.50;;;;;;3136616;28;20080;-78
2021/06/05 04:39:34;;;;;;;4.20;3.90;;;20.70;59.50;;;;;;3136136;28;20048;-78
2021/06/05 04:41:06;;;;;;;3.78;3.47;;;20.70;59.50;;;;;;3135377;28;20517;-79
2021/06/05 04:42:37;;;;;;;4.05;3.65;;;20.70;59.50;;;;;;3136192;28;20055;-78
2021/06/05 04:44:08;;;;;;;3.83;3.53;;;20.70;59.50;;;;;;3135894;28;20053;-78
2021/06/05 04:45:40;;;;;;;3.72;3.42;;;20.70;59.50;;;;;;3144481;28;20048;-77
2021/06/05 04:47:12;;;;;;;4.57;3.87;;;20.70;59.50;;;;;;3148278;28;20136;-79
2021/06/05 04:48:43;;;;;;;4.10;3.70;;;20.70;59.50;;;;;;3148588;28;20295;-78
2021/06/05 04:50:16;;;;;;;4.50;4.10;;;20.70;59.50;;;;;;3147531;28;20080;-78
2021/06/05 04:51:47;;;;;;;4.13;3.72;;;20.70;59.50;;;;;;3148095;28;20107;-79
2021/06/05 04:53:18;;;;;;;4.43;4.03;;;20.70;59.50;;;;;;3148117;28;20052;-78
2021/06/05 04:54:49;;;;;;;3.78;3.47;;;20.70;59.50;;;;;;3148232;28;20036;-78
2021/06/05 04:56:22;;;;;;;3.88;3.58;;;20.70;59.50;;;;;;3147597;28;20057;-77
2021/06/05 04:57:54;;;;;;;4.30;3.90;;;20.70;59.50;;;;;;3148307;28;20079;-79
2021/06/05 04:59:25;;;;;;;4.28;3.90;;;20.70;59.50;;;;;;3148367;28;20044;-78
2021/06/05 05:00:57;;;;;;;4.28;3.90;;;20.70;59.50;;;;;;3146633;28;20040;-79
2021/06/05 05:02:29;;;;;;;5.18;3.70;;;20.70;59.50;;;;;;3148151;28;20555;-77
2021/06/05 05:04:00;;;;;;;3.88;3.55;;;20.70;59.50;;;;;;3148058;28;20048;-79
2021/06/05 05:05:31;;;;;;;4.35;3.95;;;20.80;59.50;;;;;;3147635;28;20071;-78
2021/06/05 05:07:02;;;;;;;3.78;3.47;;;20.70;59.50;;;;;;3147908;28;20048;-78
2021/06/05 05:08:33;;;;;;;4.35;3.95;;;20.70;59.50;;;;;;3148170;28;20049;-78
2021/06/05 05:10:05;;;;;;;4.38;3.97;;;20.70;59.50;;;;;;3147833;28;20041;-78
2021/06/05 05:11:37;;;;;;;4.47;4.00;;;20.70;59.50;;;;;;3147533;28;20044;-78
2021/06/05 05:13:08;;;;;;;4.88;3.72;;;20.70;59.50;;;;;;3147879;28;20673;-79
2021/06/05 05:14:39;;;;;;;4.40;4.00;;;20.70;59.50;;;;;;3147954;28;20519;-77
2021/06/05 05:16:12;;;;;;;4.45;4.05;;;20.70;59.50;;;;;;3146803;28;20072;-79
2021/06/05 05:17:42;;;;;;;4.22;3.83;;;20.70;59.50;;;;;;3148080;28;20055;-78
2021/06/05 05:19:14;;;;;;;3.97;3.67;;;20.70;59.50;;;;;;3147956;28;20045;-78
2021/06/05 05:20:45;;;;;;;3.90;3.60;;;20.70;59.40;;;;;;3147261;28;20056;-80
2021/06/05 05:22:16;;;;;;;3.72;3.42;;;20.70;59.40;;;;;;3147931;28;20110;-78
2021/06/05 05:23:47;;;;;;;3.63;3.33;;;20.70;59.40;;;;;;3148012;28;20080;-79
2021/06/05 05:25:18;;;;;;;4.18;3.88;;;20.80;59.50;;;;;;3147317;28;20056;-78
2021/06/05 05:26:49;;;;;;;4.43;3.45;;;20.70;59.40;;;;;;3148062;28;20508;-78
2021/06/05 05:28:20;;;;;;;4.20;3.80;;;20.70;59.40;;;;;;3147986;28;20055;-78
2021/06/05 05:29:51;;;;;;;3.80;3.50;;;20.70;59.50;;;;;;3147563;28;20048;-79
2021/06/05 05:31:25;;;;;;;4.03;3.72;;;20.70;59.40;;;;;;3146113;28;20040;-78
2021/06/05 05:32:56;;;;;;;4.15;3.75;;;20.70;59.40;;;;;;3147964;28;20505;-78
2021/06/05 05:34:27;;;;;;;3.97;3.60;;;20.70;59.40;;;;;;3147879;28;20056;-79
2021/06/05 05:35:59;;;;;;;4.28;3.88;;;20.70;59.40;;;;;;3147206;28;20053;-79
2021/06/05 05:37:29;;;;;;;3.95;3.60;;;20.70;59.40;;;;;;3147643;28;20568;-79
2021/06/05 05:39:00;;;;;;;3.90;3.60;;;20.70;59.30;;;;;;3148028;28;20090;-78
2021/06/05 05:40:32;;;;;;;3.97;3.47;;;20.70;59.30;;;;;;3147002;28;20694;-78
2021/06/05 05:42:04;;;;;;;3.97;3.67;;;20.70;59.40;;;;;;3147574;28;20047;-79
2021/06/05 05:43:35;;;;;;;3.80;3.50;;;20.70;59.30;;;;;;3147417;28;20060;-78
2021/06/05 05:45:07;;;;;;;4.13;3.72;;;20.70;59.30;;;;;;3146943;28;20529;-80
2021/06/05 05:46:40;;;;;;;4.25;3.60;;;20.70;59.30;;;;;;3147100;28;20049;-79
2021/06/05 05:48:12;;;;;;;4.25;3.22;;;20.80;59.40;;;;;;3147635;28;20534;-79
2021/06/05 05:49:43;;;;;;;4.97;3.60;;;20.80;59.40;;;;;;3147246;28;20127;-79
2021/06/05 05:51:15;;;;;;;4.97;3.55;;;20.80;59.40;;;;;;3147077;28;20134;-78
2021/06/05 05:52:46;;;;;;;3.78;3.47;;;20.70;59.50;;;;;;3147604;28;20045;-79
2021/06/05 05:54:17;;;;;;;3.72;3.42;;;20.80;59.50;;;;;;3147613;28;20051;-78
2021/06/05 05:55:48;;;;;;;3.90;3.60;;;20.80;59.40;;;;;;3147078;28;20045;-79
2021/06/05 05:57:19;;;;;;;3.60;3.30;;;20.80;59.30;;;;;;3147420;28;20408;-79
2021/06/05 05:58:51;;;;;;;4.05;3.75;;;20.80;59.30;;;;;;3147551;28;20064;-79
2021/06/05 06:00:25;;;;;;;4.03;3.72;;;20.80;59.50;;;;;;3145725;28;20056;-78
2021/06/05 06:01:58;;;;;;;3.90;3.60;;;20.80;59.50;;;;;;3147434;28;20049;-78
2021/06/05 06:03:29;;;;;;;4.15;3.75;;;20.80;59.40;;;;;;3147330;28;20056;-79
2021/06/05 06:05:00;;;;;;;3.80;3.50;;;20.80;59.40;;;;;;3147193;28;20044;-78
2021/06/05 06:06:31;;;;;;;3.92;3.63;;;20.80;59.40;;;;;;3146870;28;20040;-78
2021/06/05 06:08:03;;;;;;;3.67;3.38;;;20.80;59.40;;;;;;3147428;28;20083;-78
2021/06/05 06:09:34;;;;;;;3.83;3.53;;;20.80;59.40;;;;;;3147230;28;20072;-77
2021/06/05 06:11:06;;;;;;;3.83;3.42;;;20.80;59.40;;;;;;3146702;28;20063;-78
2021/06/05 06:12:36;;;;;;;4.03;3.72;;;20.80;59.40;;;;;;3147469;28;20529;-78
2021/06/05 06:14:08;;;;;;;3.63;3.33;;;20.80;59.40;;;;;;3147159;28;20051;-79
2021/06/05 06:15:38;;;;;;;4.05;3.70;;;20.80;59.40;;;;;;3146040;28;20064;-78
2021/06/05 06:17:11;;;;;;;3.95;3.65;;;20.80;59.40;;;;;;3147158;28;20044;-78
2021/06/05 06:18:42;;;;;;;3.60;3.30;;;20.80;59.40;;;;;;3147439;28;20570;-79
2021/06/05 06:20:16;;;;;;;4.25;3.85;;;20.80;59.40;;;;;;3147115;28;20052;-79
2021/06/05 06:21:47;;;;;;;4.10;3.70;;;20.80;59.40;;;;;;3146752;28;20044;-78
2021/06/05 06:23:19;;;;;;;3.70;3.40;;;20.80;59.40;;;;;;3147250;28;20086;-78
2021/06/05 06:24:51;;;;;;;3.78;3.47;;;20.80;59.40;;;;;;3147260;28;20044;-79
2021/06/05 06:26:23;;;;;;;3.92;3.63;;;20.80;59.40;;;;;;3146437;28;20079;-78
2021/06/05 06:27:54;;;;;;;;;;;20.80;59.40;;;;;;3147580;28;20487;-79
2021/06/05 06:29:30;;;;;;;4.30;3.40;;;20.80;59.30;;;;;;3146900;28;19924;-78
2021/06/05 06:31:01;;;;;;;3.75;3.40;;;20.80;59.30;;;;;;3145808;28;20459;-78
2021/06/05 06:32:34;;;;;;;3.90;3.47;;;20.80;59.30;;;;;;3147002;28;20505;-80
2021/06/05 06:34:05;;;;;;;4.15;3.80;;;20.80;59.30;;;;;;3146770;28;20052;-79
2021/06/05 06:35:38;;;;;;;4.38;3.47;;;20.80;59.40;;;;;;3146302;28;20159;-78
2021/06/05 06:37:09;;;;;;;3.67;3.38;;;20.80;59.30;;;;;;3147167;28;20048;-79
2021/06/05 06:38:41;;;;;;;4.13;3.70;;;20.80;59.30;;;;;;3147039;28;20076;-78
2021/06/05 06:40:13;;;;;;;3.60;3.30;;;20.80;59.30;;;;;;3146689;28;20049;-78
2021/06/05 06:41:44;;;;;;;3.80;3.50;;;20.80;59.30;;;;;;3146644;28;20056;-78
2021/06/05 06:43:17;;;;;;;3.85;3.47;;;20.80;59.30;;;;;;3147019;28;20635;-78
2021/06/05 06:44:47;;;;;;;4.65;3.40;;;20.80;59.30;;;;;;3147002;28;20110;-78
2021/06/05 06:46:21;;;;;;;3.85;3.50;;;20.80;59.20;;;;;;3155644;28;20075;-78
2021/06/05 06:47:53;;;;;;;3.78;3.45;;;20.80;59.90;;;;;;3159457;28;20412;-78
2021/06/05 06:49:24;;;;;;;3.65;3.35;;;20.80;59.30;;;;;;3159530;28;20048;-78
2021/06/05 06:50:55;;;;;;;3.92;3.30;;;20.80;59.30;;;;;;3158761;28;20072;-78
2021/06/05 06:52:26;;;;;;;4.05;3.75;;;20.80;59.30;;;;;;3159405;28;20633;-78
2021/06/05 06:53:58;;;;;;;4.10;3.70;;;20.80;59.30;;;;;;3159453;28;20117;-78
2021/06/05 06:55:29;;;;;;;3.90;3.55;;;20.90;59.30;;;;;;3159329;28;20055;-79
2021/06/05 06:57:00;;;;;;;3.90;3.60;;;20.80;59.20;;;;;;3160010;28;20048;-77
2021/06/05 06:58:30;;;;;;;3.70;3.40;;;20.80;59.30;;;;;;3160197;28;20048;-79
2021/06/05 07:00:03;;;;;;;4.03;3.65;;;20.80;59.20;;;;;;3160027;28;20054;-79
2021/06/05 07:01:34;;;;;;;4.22;3.83;;;20.80;59.30;;;;;;3157244;28;20579;-78
2021/06/05 07:03:07;;;;;;;4.05;3.67;;;20.80;59.30;;;;;;3159219;28;20140;-77
2021/06/05 07:04:38;;;;;;;4.00;3.60;;;20.80;59.20;;;;;;3159291;28;20075;-78
2021/06/05 07:06:09;;;;;;;3.80;3.50;;;20.80;59.20;;;;;;3158862;28;20055;-79
2021/06/05 07:07:40;;;;;;;4.00;3.60;;;20.80;59.30;;;;;;3159292;28;20125;-77
2021/06/05 07:09:13;;;;;;;3.75;3.45;;;20.90;59.30;;;;;;3159234;28;20054;-77
2021/06/05 07:10:44;;;;;;;;;;;20.80;59.20;;;;;;3159070;28;20098;-78
2021/06/05 07:12:15;;;;;;;3.90;3.50;;;20.80;59.30;;;;;;3158981;28;19971;-78
2021/06/05 07:13:46;;;;;;;3.60;3.30;;;20.80;59.30;;;;;;3159298;28;20504;-78
2021/06/05 07:15:17;;;;;;;3.97;3.65;;;20.80;59.20;;;;;;3157606;28;20059;-79
2021/06/05 07:16:48;;;;;;;3.85;3.55;;;20.80;59.20;;;;;;3159327;28;20427;-79
2021/06/05 07:18:21;;;;;;;4.07;3.78;;;20.80;59.20;;;;;;3159021;28;20052;-78
2021/06/05 07:19:52;;;;;;;;;;;20.80;59.30;;;;;;3159355;28;20134;-78
2021/06/05 07:21:23;;;;;;;4.00;3.60;;;20.80;59.20;;;;;;3158411;28;20030;-78
2021/06/05 07:22:54;;;;;;;4.25;3.85;;;20.80;59.20;;;;;;3159260;28;20048;-79
2021/06/05 07:24:25;;;;;;;3.97;3.67;;;20.80;59.20;;;;;;3158940;28;20048;-79
2021/06/05 07:25:57;;;;;;;4.10;3.70;;;20.80;59.20;;;;;;3158482;28;20407;-78
2021/06/05 07:27:28;;;;;;;3.78;3.47;;;20.80;59.20;;;;;;3159097;28;20055;-78
2021/06/05 07:29:00;;;;;;;3.80;3.50;;;20.80;59.20;;;;;;3159163;28;20499;-78
2021/06/05 07:30:31;;;;;;;3.80;3.50;;;20.80;59.20;;;;;;3157538;28;20047;-78
2021/06/05 07:32:04;;;;;;;3.83;3.53;;;20.80;59.20;;;;;;3158819;28;20047;-79
2021/06/05 07:33:37;;;;;;;3.38;3.08;;;20.80;59.20;;;;;;3159187;28;20382;-78
2021/06/05 07:35:09;;;;;;;3.80;3.50;;;20.80;59.20;;;;;;3158771;28;20044;-78
2021/06/05 07:36:41;;;;;;;4.10;3.80;;;20.80;59.30;;;;;;3158288;28;20051;-79
2021/06/05 07:38:13;;;;;;;3.97;3.53;;;20.80;59.20;;;;;;3158946;28;20086;-79
2021/06/05 07:39:44;;;;;;;3.70;3.40;;;20.80;59.20;;;;;;3158885;28;20048;-77
2021/06/05 07:41:15;;;;;;;4.85;3.70;;;20.90;59.10;;;;;;3158477;28;20040;-79
2021/06/05 07:42:46;;;;;;;3.95;3.60;;;20.80;59.00;;;;;;3158880;28;20044;-78
2021/06/05 07:44:19;;;;;;;4.00;3.70;;;20.90;59.10;;;;;;3158969;28;20044;-77
2021/06/05 07:45:51;;;;;;;3.67;3.38;;;20.90;59.20;;;;;;3157776;28;20067;-78
2021/06/05 07:47:22;;;;;;;3.63;3.33;;;20.90;59.10;;;;;;3158754;28;20455;-78
2021/06/05 07:48:54;;;;;;;3.47;3.17;;;20.90;59.10;;;;;;3159061;28;20052;-77
2021/06/05 07:50:26;;;;;;;3.90;3.60;;;20.90;59.20;;;;;;3158287;28;20078;-78
2021/06/05 07:51:57;;;;;;;4.32;3.78;;;20.80;59.20;;;;;;3159064;28;20044;-79
2021/06/05 07:53:28;;;;;;;3.78;3.47;;;20.80;59.20;;;;;;3158856;28;20048;-78
2021/06/05 07:54:59;;;;;;;3.78;3.47;;;20.90;59.30;;;;;;3158797;28;20048;-78
2021/06/05 07:56:30;;;;;;;3.90;3.30;;;20.80;59.10;;;;;;3158440;28;20047;-78
2021/06/05 07:58:01;;;;;;;4.00;3.60;;;20.80;59.20;;;;;;3158912;28;20048;-78
2021/06/05 07:59:32;;;;;;;3.50;3.20;;;20.80;59.20;;;;;;3158808;28;20408;-81